sensor_id;sensor_type;location;lat;lon;timestamp;pressure;altitude;pressure_sealevel;temperature;humidity
19086;BME280;9675;51.538;6.728;2023-03-22T00:01:12;100723.66;;;12.01;100.00
19086;BME280;9675;51.538;6.728;2023-03-22T00:03:40;100722.00;;;12.03;100.00
19086;BME280;9675;51.538;6.728;2023-03-22T00:06:08;100720.28;;;12.02;100.00
19086;BME280;9675;51.538;6.728;2023-03-22T00:08:37;100721.00;;;11.99;100.00
19086;BME280;9675;51.538;6.728;2023-03-22T00:11:06;100726.19;;;11.99;100.00
19086;BME280;9675;51.538;6.728;2023-03-22T00:13:34;100721.78;;;11.97;100.00
19086;BME280;9675;51.538;6.728;2023-03-22T00:16:03;100718.34;;;11.98;100.00
19086;BME280;9675;51.538;6.728;2023-03-22T00:18:31;100702.69;;;11.93;100.00
19086;BME280;9675;51.538;6.728;2023-03-22T00:20:59;100713.00;;;11.93;100.00
19086;BME280;9675;51.538;6.728;2023-03-22T00:23:27;100710.50;;;11.95;100.00
19086;BME280;9675;51.538;6.728;2023-03-22T00:25:56;100705.41;;;11.96;100.00
19086;BME280;9675;51.538;6.728;2023-03-22T00:28:23;100701.88;;;11.94;100.00
19086;BME280;9675;51.538;6.728;2023-03-22T00:30:53;100700.00;;;11.90;100.00
19086;BME280;9675;51.538;6.728;2023-03-22T00:33:21;100694.84;;;11.90;100.00
19086;BME280;9675;51.538;6.728;2023-03-22T00:35:50;100685.31;;;11.89;100.00
19086;BME280;9675;51.538;6.728;2023-03-22T00:38:18;100687.84;;;11.87;100.00
19086;BME280;9675;51.538;6.728;2023-03-22T00:40:45;100683.56;;;11.88;100.00
19086;BME280;9675;51.538;6.728;2023-03-22T00:43:14;100684.38;;;11.87;100.00
19086;BME280;9675;51.538;6.728;2023-03-22T00:45:42;100679.22;;;11.87;100.00
19086;BME280;9675;51.538;6.728;2023-03-22T00:48:10;100676.59;;;11.85;100.00
19086;BME280;9675;51.538;6.728;2023-03-22T00:50:38;100678.31;;;11.86;100.00
19086;BME280;9675;51.538;6.728;2023-03-22T00:53:05;100669.66;;;11.84;100.00
19086;BME280;9675;51.538;6.728;2023-03-22T00:55:32;100667.88;;;11.83;100.00
19086;BME280;9675;51.538;6.728;2023-03-22T00:58:00;100668.78;;;11.84;100.00
19086;BME280;9675;51.538;6.728;2023-03-22T01:00:28;100669.66;;;11.84;100.00
19086;BME280;9675;51.538;6.728;2023-03-22T01:02:56;100671.44;;;11.85;100.00
19086;BME280;9675;51.538;6.728;2023-03-22T01:05:24;100665.38;;;11.85;100.00
19086;BME280;9675;51.538;6.728;2023-03-22T01:07:53;100661.09;;;11.85;100.00
19086;BME280;9675;51.538;6.728;2023-03-22T01:10:22;100662.00;;;11.86;100.00
19086;BME280;9675;51.538;6.728;2023-03-22T01:12:49;100660.16;;;11.83;100.00
19086;BME280;9675;51.538;6.728;2023-03-22T01:15:16;100654.25;;;11.86;100.00
19086;BME280;9675;51.538;6.728;2023-03-22T01:17:44;100655.06;;;11.85;100.00
19086;BME280;9675;51.538;6.728;2023-03-22T01:20:12;100645.63;;;11.85;100.00
19086;BME280;9675;51.538;6.728;2023-03-22T01:22:39;100639.59;;;11.85;100.00
19086;BME280;9675;51.538;6.728;2023-03-22T01:25:08;100652.47;;;11.85;100.00
19086;BME280;9675;51.538;6.728;2023-03-22T01:27:35;100648.13;;;11.84;100.00
19086;BME280;9675;51.538;6.728;2023-03-22T01:30:03;100635.25;;;11.84;100.00
19086;BME280;9675;51.538;6.728;2023-03-22T01:32:30;100621.44;;;11.83;100.00
19086;BME280;9675;51.538;6.728;2023-03-22T01:34:59;100622.34;;;11.84;100.00
19086;BME280;9675;51.538;6.728;2023-03-22T01:37:26;100616.28;;;11.83;100.00
19086;BME280;9675;51.538;6.728;2023-03-22T01:39:53;100610.19;;;11.81;100.00
19086;BME280;9675;51.538;6.728;2023-03-22T01:42:21;100603.22;;;11.79;100.00
19086;BME280;9675;51.538;6.728;2023-03-22T01:45:31;100603.22;;;11.79;100.00
19086;BME280;9675;51.538;6.728;2023-03-22T01:48:05;100601.53;;;11.79;100.00
19086;BME280;9675;51.538;6.728;2023-03-22T01:50:36;100591.13;;;11.78;100.00
19086;BME280;9675;51.538;6.728;2023-03-22T01:53:10;100587.63;;;11.76;100.00
19086;BME280;9675;51.538;6.728;2023-03-22T01:55:39;100589.34;;;11.77;100.00
19086;BME280;9675;51.538;6.728;2023-03-22T01:58:06;100582.47;;;11.76;100.00
19086;BME280;9675;51.538;6.728;2023-03-22T02:00:34;100581.50;;;11.74;100.00
19086;BME280;9675;51.538;6.728;2023-03-22T02:03:03;100585.69;;;11.72;100.00
19086;BME280;9675;51.538;6.728;2023-03-22T02:05:34;100582.31;;;11.73;100.00
19086;BME280;9675;51.538;6.728;2023-03-22T02:08:03;100579.63;;;11.71;100.00
19086;BME280;9675;51.538;6.728;2023-03-22T02:10:31;100570.09;;;11.69;100.00
19086;BME280;9675;51.538;6.728;2023-03-22T02:13:23;100570.97;;;11.69;100.00
19086;BME280;9675;51.538;6.728;2023-03-22T02:16:03;100560.50;;;11.66;100.00
19086;BME280;9675;51.538;6.728;2023-03-22T02:18:50;100549.34;;;11.66;100.00
19086;BME280;9675;51.538;6.728;2023-03-22T02:22:22;100543.34;;;11.67;100.00
19086;BME280;9675;51.538;6.728;2023-03-22T02:25:45;100547.63;;;11.66;100.00
19086;BME280;9675;51.538;6.728;2023-03-22T02:28:31;100544.19;;;11.66;100.00
19086;BME280;9675;51.538;6.728;2023-03-22T02:31:28;100536.38;;;11.64;100.00
19086;BME280;9675;51.538;6.728;2023-03-22T02:34:26;100536.19;;;11.60;100.00
19086;BME280;9675;51.538;6.728;2023-03-22T02:37:49;100535.19;;;11.56;100.00
19086;BME280;9675;51.538;6.728;2023-03-22T02:40:27;100536.88;;;11.56;100.00
19086;BME280;9675;51.538;6.728;2023-03-22T02:43:06;100538.53;;;11.54;100.00
19086;BME280;9675;51.538;6.728;2023-03-22T02:45:45;100526.38;;;11.51;100.00
19086;BME280;9675;51.538;6.728;2023-03-22T02:48:26;100523.69;;;11.48;100.00
19086;BME280;9675;51.538;6.728;2023-03-22T02:51:00;100527.06;;;11.47;100.00
19086;BME280;9675;51.538;6.728;2023-03-22T02:53:40;100528.72;;;11.45;100.00
19086;BME280;9675;51.538;6.728;2023-03-22T02:56:13;100517.47;;;11.43;100.00
19086;BME280;9675;51.538;6.728;2023-03-22T02:58:46;100515.63;;;11.40;100.00
19086;BME280;9675;51.538;6.728;2023-03-22T03:01:20;100514.75;;;11.40;100.00
19086;BME280;9675;51.538;6.728;2023-03-22T03:03:55;100517.28;;;11.38;100.00
19086;BME280;9675;51.538;6.728;2023-03-22T03:06:27;100523.31;;;11.39;100.00
19086;BME280;9675;51.538;6.728;2023-03-22T03:08:57;100519.84;;;11.38;100.00
19086;BME280;9675;51.538;6.728;2023-03-22T03:11:28;100518.91;;;11.36;100.00
19086;BME280;9675;51.538;6.728;2023-03-22T03:13:56;100524.06;;;11.36;100.00
19086;BME280;9675;51.538;6.728;2023-03-22T03:16:27;100520.59;;;11.36;100.00
19086;BME280;9675;51.538;6.728;2023-03-22T03:19:05;100523.94;;;11.33;100.00
19086;BME280;9675;51.538;6.728;2023-03-22T03:21:42;100518.78;;;11.33;100.00
19086;BME280;9675;51.538;6.728;2023-03-22T03:24:22;100517.84;;;11.31;100.00
19086;BME280;9675;51.538;6.728;2023-03-22T03:27:00;100513.50;;;11.30;100.00
19086;BME280;9675;51.538;6.728;2023-03-22T03:29:37;100507.41;;;11.28;100.00
19086;BME280;9675;51.538;6.728;2023-03-22T03:32:13;100500.50;;;11.27;100.00
19086;BME280;9675;51.538;6.728;2023-03-22T03:34:45;100512.50;;;11.27;100.00
19086;BME280;9675;51.538;6.728;2023-03-22T03:37:19;100497.81;;;11.24;100.00
19086;BME280;9675;51.538;6.728;2023-03-22T03:39:54;100502.06;;;11.24;100.00
19086;BME280;9675;51.538;6.728;2023-03-22T03:42:26;100503.78;;;11.23;100.00
19086;BME280;9675;51.538;6.728;2023-03-22T03:44:55;100498.53;;;11.22;100.00
19086;BME280;9675;51.538;6.728;2023-03-22T03:47:24;100497.66;;;11.21;100.00
19086;BME280;9675;51.538;6.728;2023-03-22T03:49:53;100499.41;;;11.22;100.00
19086;BME280;9675;51.538;6.728;2023-03-22T03:52:20;100501.03;;;11.20;100.00
19086;BME280;9675;51.538;6.728;2023-03-22T03:54:49;100490.69;;;11.19;100.00
19086;BME280;9675;51.538;6.728;2023-03-22T03:57:16;100496.66;;;11.18;100.00
19086;BME280;9675;51.538;6.728;2023-03-22T03:59:44;100499.16;;;11.16;100.00
19086;BME280;9675;51.538;6.728;2023-03-22T04:02:11;100495.63;;;11.14;100.00
19086;BME280;9675;51.538;6.728;2023-03-22T04:04:38;100493.06;;;11.14;100.00
19086;BME280;9675;51.538;6.728;2023-03-22T04:07:05;100486.97;;;11.12;100.00
19086;BME280;9675;51.538;6.728;2023-03-22T04:09:36;100487.78;;;11.11;100.00
19086;BME280;9675;51.538;6.728;2023-03-22T04:12:03;100496.41;;;11.12;100.00
19086;BME280;9675;51.538;6.728;2023-03-22T04:14:30;100495.50;;;11.11;100.00
19086;BME280;9675;51.538;6.728;2023-03-22T04:16:59;100489.41;;;11.09;100.00
19086;BME280;9675;51.538;6.728;2023-03-22T04:19:26;100481.69;;;11.09;100.00
19086;BME280;9675;51.538;6.728;2023-03-22T04:21:53;100485.09;;;11.08;100.00
19086;BME280;9675;51.538;6.728;2023-03-22T04:24:21;100472.22;;;11.08;100.00
19086;BME280;9675;51.538;6.728;2023-03-22T04:26:49;100479.78;;;11.05;100.00
19086;BME280;9675;51.538;6.728;2023-03-22T04:29:17;100476.28;;;11.03;100.00
19086;BME280;9675;51.538;6.728;2023-03-22T04:31:44;100482.34;;;11.03;100.00
19086;BME280;9675;51.538;6.728;2023-03-22T04:34:13;100475.41;;;11.02;100.00
19086;BME280;9675;51.538;6.728;2023-03-22T04:36:39;100471.00;;;11.00;100.00
19086;BME280;9675;51.538;6.728;2023-03-22T04:39:09;100478.72;;;11.00;100.00
19086;BME280;9675;51.538;6.728;2023-03-22T04:41:37;100478.63;;;10.97;100.00
19086;BME280;9675;51.538;6.728;2023-03-22T04:44:05;100476.84;;;10.96;100.00
19086;BME280;9675;51.538;6.728;2023-03-22T04:46:36;100481.19;;;10.97;100.00
19086;BME280;9675;51.538;6.728;2023-03-22T04:49:03;100473.47;;;10.97;100.00
19086;BME280;9675;51.538;6.728;2023-03-22T04:51:35;100484.50;;;10.94;100.00
19086;BME280;9675;51.538;6.728;2023-03-22T04:54:02;100487.03;;;10.93;100.00
19086;BME280;9675;51.538;6.728;2023-03-22T04:56:29;100478.34;;;10.91;100.00
19086;BME280;9675;51.538;6.728;2023-03-22T04:58:56;100483.50;;;10.91;100.00
19086;BME280;9675;51.538;6.728;2023-03-22T05:01:23;100484.25;;;10.88;100.00
19086;BME280;9675;51.538;6.728;2023-03-22T05:03:50;100485.06;;;10.87;100.00
19086;BME280;9675;51.538;6.728;2023-03-22T05:06:17;100475.50;;;10.85;100.00
19086;BME280;9675;51.538;6.728;2023-03-22T05:08:45;100479.84;;;10.86;100.00
19086;BME280;9675;51.538;6.728;2023-03-22T05:11:16;100473.88;;;10.87;100.00
19086;BME280;9675;51.538;6.728;2023-03-22T05:13:44;100467.09;;;10.89;100.00
19086;BME280;9675;51.538;6.728;2023-03-22T05:16:11;100473.13;;;10.89;100.00
19086;BME280;9675;51.538;6.728;2023-03-22T05:18:38;100466.16;;;10.87;100.00
19086;BME280;9675;51.538;6.728;2023-03-22T05:21:12;100480.81;;;10.88;100.00
19086;BME280;9675;51.538;6.728;2023-03-22T05:23:41;100482.44;;;10.86;100.00
19086;BME280;9675;51.538;6.728;2023-03-22T05:26:10;100478.91;;;10.84;100.00
19086;BME280;9675;51.538;6.728;2023-03-22T05:28:41;100478.00;;;10.83;100.00
19086;BME280;9675;51.538;6.728;2023-03-22T05:31:08;100476.28;;;10.82;100.00
19086;BME280;9675;51.538;6.728;2023-03-22T05:33:36;100480.53;;;10.82;100.00
19086;BME280;9675;51.538;6.728;2023-03-22T05:36:04;100482.25;;;10.81;100.00
19086;BME280;9675;51.538;6.728;2023-03-22T05:38:32;100478.69;;;10.79;100.00
19086;BME280;9675;51.538;6.728;2023-03-22T05:40:59;100475.41;;;10.82;100.00
19086;BME280;9675;51.538;6.728;2023-03-22T05:43:27;100481.34;;;10.81;100.00
19086;BME280;9675;51.538;6.728;2023-03-22T05:45:54;100474.34;;;10.78;100.00
19086;BME280;9675;51.538;6.728;2023-03-22T05:48:21;100477.81;;;10.79;100.00
19086;BME280;9675;51.538;6.728;2023-03-22T05:50:48;100483.78;;;10.78;100.00
19086;BME280;9675;51.538;6.728;2023-03-22T05:53:15;100477.69;;;10.76;100.00
19086;BME280;9675;51.538;6.728;2023-03-22T05:55:42;100479.41;;;10.75;100.00
19086;BME280;9675;51.538;6.728;2023-03-22T05:58:09;100482.03;;;10.77;100.00
19086;BME280;9675;51.538;6.728;2023-03-22T06:00:40;100479.41;;;10.75;100.00
19086;BME280;9675;51.538;6.728;2023-03-22T06:03:09;100472.41;;;10.73;100.00
19086;BME280;9675;51.538;6.728;2023-03-22T06:05:36;100475.81;;;10.72;100.00
19086;BME280;9675;51.538;6.728;2023-03-22T06:08:03;100474.94;;;10.71;100.00
19086;BME280;9675;51.538;6.728;2023-03-22T06:10:32;100480.13;;;10.73;100.00
19086;BME280;9675;51.538;6.728;2023-03-22T06:13:03;100474.97;;;10.73;100.00
19086;BME280;9675;51.538;6.728;2023-03-22T06:15:30;100480.13;;;10.73;100.00
19086;BME280;9675;51.538;6.728;2023-03-22T06:17:59;100477.56;;;10.73;100.00
19086;BME280;9675;51.538;6.728;2023-03-22T06:20:26;100466.44;;;10.74;100.00
19086;BME280;9675;51.538;6.728;2023-03-22T06:22:53;100473.34;;;10.75;100.00
19086;BME280;9675;51.538;6.728;2023-03-22T06:25:21;100469.91;;;10.74;100.00
19086;BME280;9675;51.538;6.728;2023-03-22T06:27:51;100464.81;;;10.76;100.00
19086;BME280;9675;51.538;6.728;2023-03-22T06:30:19;100464.81;;;10.76;100.00
19086;BME280;9675;51.538;6.728;2023-03-22T06:32:46;100451.94;;;10.76;100.00
19086;BME280;9675;51.538;6.728;2023-03-22T06:35:18;100457.22;;;10.79;100.00
19086;BME280;9675;51.538;6.728;2023-03-22T06:37:46;100463.19;;;10.78;100.00
19086;BME280;9675;51.538;6.728;2023-03-22T06:40:16;100454.63;;;10.79;100.00
19086;BME280;9675;51.538;6.728;2023-03-22T06:42:46;100461.44;;;10.77;100.00
19086;BME280;9675;51.538;6.728;2023-03-22T06:45:13;100457.19;;;10.77;100.00
19086;BME280;9675;51.538;6.728;2023-03-22T06:47:42;100454.63;;;10.79;100.00
19086;BME280;9675;51.538;6.728;2023-03-22T06:50:11;100452.06;;;10.79;100.00
19086;BME280;9675;51.538;6.728;2023-03-22T06:52:42;100444.41;;;10.80;100.00
19086;BME280;9675;51.538;6.728;2023-03-22T06:55:13;100441.09;;;10.83;100.00
19086;BME280;9675;51.538;6.728;2023-03-22T06:57:40;100449.75;;;10.85;100.00
19086;BME280;9675;51.538;6.728;2023-03-22T07:00:10;100451.41;;;10.83;100.00
19086;BME280;9675;51.538;6.728;2023-03-22T07:02:37;100446.25;;;10.83;100.00
19086;BME280;9675;51.538;6.728;2023-03-22T07:05:05;100450.63;;;10.85;100.00
19086;BME280;9675;51.538;6.728;2023-03-22T07:07:32;100454.16;;;10.87;100.00
19086;BME280;9675;51.538;6.728;2023-03-22T07:10:01;100452.50;;;10.89;100.00
19086;BME280;9675;51.538;6.728;2023-03-22T07:12:28;100454.28;;;10.90;100.00
19086;BME280;9675;51.538;6.728;2023-03-22T07:14:55;100451.72;;;10.90;100.00
19086;BME280;9675;51.538;6.728;2023-03-22T07:17:22;100450.13;;;10.94;100.00
19086;BME280;9675;51.538;6.728;2023-03-22T07:19:49;100457.03;;;10.95;100.00
19086;BME280;9675;51.538;6.728;2023-03-22T07:22:16;100449.31;;;10.95;100.00
19086;BME280;9675;51.538;6.728;2023-03-22T07:24:46;100452.84;;;10.97;100.00
19086;BME280;9675;51.538;6.728;2023-03-22T07:27:14;100452.03;;;10.98;100.00
19086;BME280;9675;51.538;6.728;2023-03-22T07:29:41;100446.03;;;10.99;100.00
19086;BME280;9675;51.538;6.728;2023-03-22T07:32:09;100449.66;;;11.02;100.00
19086;BME280;9675;51.538;6.728;2023-03-22T07:34:37;100446.25;;;11.03;100.00
19086;BME280;9675;51.538;6.728;2023-03-22T07:37:04;100452.34;;;11.05;100.00
19086;BME280;9675;51.538;6.728;2023-03-22T07:39:33;100447.25;;;11.07;100.00
19086;BME280;9675;51.538;6.728;2023-03-22T07:42:00;100449.03;;;11.08;100.00
19086;BME280;9675;51.538;6.728;2023-03-22T07:44:28;100456.94;;;11.13;100.00
19086;BME280;9675;51.538;6.728;2023-03-22T07:46:56;100462.13;;;11.14;100.00
19086;BME280;9675;51.538;6.728;2023-03-22T07:49:23;100451.91;;;11.16;100.00
19086;BME280;9675;51.538;6.728;2023-03-22T07:51:51;100456.31;;;11.18;100.00
19086;BME280;9675;51.538;6.728;2023-03-22T07:54:18;100462.19;;;11.16;100.00
19086;BME280;9675;51.538;6.728;2023-03-22T07:56:45;100451.16;;;11.18;100.00
19086;BME280;9675;51.538;6.728;2023-03-22T07:59:13;100451.19;;;11.20;100.00
19086;BME280;9675;51.538;6.728;2023-03-22T08:01:41;100457.22;;;11.20;100.00
19086;BME280;9675;51.538;6.728;2023-03-22T08:04:08;100458.19;;;11.22;100.00
19086;BME280;9675;51.538;6.728;2023-03-22T08:06:36;100460.84;;;11.24;100.00
19086;BME280;9675;51.538;6.728;2023-03-22T08:09:05;100461.72;;;11.24;100.00
19086;BME280;9675;51.538;6.728;2023-03-22T08:11:34;100472.03;;;11.24;100.00
19086;BME280;9675;51.538;6.728;2023-03-22T08:14:01;100475.53;;;11.26;100.00
19086;BME280;9675;51.538;6.728;2023-03-22T08:16:28;100458.38;;;11.27;100.00
19086;BME280;9675;51.538;6.728;2023-03-22T08:18:57;100463.69;;;11.31;100.00
19086;BME280;9675;51.538;6.728;2023-03-22T08:21:24;100474.00;;;11.31;100.00
19086;BME280;9675;51.538;6.728;2023-03-22T08:23:51;100465.47;;;11.32;100.00
19086;BME280;9675;51.538;6.728;2023-03-22T08:26:18;100451.69;;;11.32;100.00
19086;BME280;9675;51.538;6.728;2023-03-22T08:28:46;100458.72;;;11.36;100.00
19086;BME280;9675;51.538;6.728;2023-03-22T08:31:15;100458.72;;;11.36;100.00
19086;BME280;9675;51.538;6.728;2023-03-22T08:33:43;100462.19;;;11.36;100.00
19086;BME280;9675;51.538;6.728;2023-03-22T08:36:15;100462.25;;;11.38;100.00
19086;BME280;9675;51.538;6.728;2023-03-22T08:38:43;100462.25;;;11.38;100.00
19086;BME280;9675;51.538;6.728;2023-03-22T08:41:11;100467.59;;;11.42;100.00
19086;BME280;9675;51.538;6.728;2023-03-22T08:43:38;100457.28;;;11.42;100.00
19086;BME280;9675;51.538;6.728;2023-03-22T08:46:05;100469.47;;;11.46;100.00
19086;BME280;9675;51.538;6.728;2023-03-22T08:48:32;100459.22;;;11.48;100.00
19086;BME280;9675;51.538;6.728;2023-03-22T08:51:00;100453.25;;;11.49;100.00
19086;BME280;9675;51.538;6.728;2023-03-22T08:53:29;100456.72;;;11.49;100.00
19086;BME280;9675;51.538;6.728;2023-03-22T08:55:56;100467.06;;;11.51;100.00
19086;BME280;9675;51.538;6.728;2023-03-22T08:58:26;100449.09;;;11.52;100.00
19086;BME280;9675;51.538;6.728;2023-03-22T09:00:54;100456.09;;;11.55;100.00
19086;BME280;9675;51.538;6.728;2023-03-22T09:03:21;100449.19;;;11.56;100.00
19086;BME280;9675;51.538;6.728;2023-03-22T09:05:48;100445.09;;;11.61;100.00
19086;BME280;9675;51.538;6.728;2023-03-22T09:08:15;100452.84;;;11.61;100.00
19086;BME280;9675;51.538;6.728;2023-03-22T09:10:44;100459.00;;;11.64;100.00
19086;BME280;9675;51.538;6.728;2023-03-22T09:13:12;100448.75;;;11.66;100.00
19086;BME280;9675;51.538;6.728;2023-03-22T09:15:42;100461.78;;;11.69;100.00
19086;BME280;9675;51.538;6.728;2023-03-22T09:18:10;100444.81;;;11.74;100.00
19086;BME280;9675;51.538;6.728;2023-03-22T09:20:38;100440.59;;;11.76;100.00
19086;BME280;9675;51.538;6.728;2023-03-22T09:23:05;100437.16;;;11.77;100.00
19086;BME280;9675;51.538;6.728;2023-03-22T09:25:32;100432.06;;;11.78;100.00
19086;BME280;9675;51.538;6.728;2023-03-22T09:28:01;100443.38;;;11.82;100.00
19086;BME280;9675;51.538;6.728;2023-03-22T09:30:29;100434.81;;;11.83;100.00
19086;BME280;9675;51.538;6.728;2023-03-22T09:32:56;100425.47;;;11.85;100.00
19086;BME280;9675;51.538;6.728;2023-03-22T09:35:23;100443.63;;;11.88;100.00
19086;BME280;9675;51.538;6.728;2023-03-22T09:37:51;100442.06;;;11.91;100.00
19086;BME280;9675;51.538;6.728;2023-03-22T09:40:20;100442.91;;;11.92;100.00
19086;BME280;9675;51.538;6.728;2023-03-22T09:42:51;100440.47;;;11.95;100.00
19086;BME280;9675;51.538;6.728;2023-03-22T09:45:28;100443.94;;;11.97;100.00
19086;BME280;9675;51.538;6.728;2023-03-22T09:48:05;100432.00;;;11.99;100.00
19086;BME280;9675;51.538;6.728;2023-03-22T09:50:48;100457.97;;;12.04;100.00
19086;BME280;9675;51.538;6.728;2023-03-22T09:53:18;100444.19;;;12.03;100.00
19086;BME280;9675;51.538;6.728;2023-03-22T09:55:54;100429.59;;;12.04;100.00
19086;BME280;9675;51.538;6.728;2023-03-22T09:58:28;100450.38;;;12.07;100.00
19086;BME280;9675;51.538;6.728;2023-03-22T10:01:05;100430.56;;;12.07;100.00
19086;BME280;9675;51.538;6.728;2023-03-22T10:04:17;100419.56;;;12.11;100.00
19086;BME280;9675;51.538;6.728;2023-03-22T10:07:02;100406.75;;;12.14;100.00
19086;BME280;9675;51.538;6.728;2023-03-22T10:09:40;100420.69;;;12.19;100.00
19086;BME280;9675;51.538;6.728;2023-03-22T10:12:18;100424.31;;;12.24;100.00
19086;BME280;9675;51.538;6.728;2023-03-22T10:14:54;100413.34;;;12.30;100.00
19086;BME280;9675;51.538;6.728;2023-03-22T10:17:27;100433.41;;;12.37;100.00
19086;BME280;9675;51.538;6.728;2023-03-22T10:19:59;100431.03;;;12.43;100.00
19086;BME280;9675;51.538;6.728;2023-03-22T10:22:34;100430.34;;;12.49;100.00
19086;BME280;9675;51.538;6.728;2023-03-22T10:25:05;100432.25;;;12.53;100.00
19086;BME280;9675;51.538;6.728;2023-03-22T10:27:34;100420.16;;;12.52;100.00
19086;BME280;9675;51.538;6.728;2023-03-22T10:30:19;100425.31;;;12.52;100.00
19086;BME280;9675;51.538;6.728;2023-03-22T10:32:55;100431.50;;;12.57;100.00
19086;BME280;9675;51.538;6.728;2023-03-22T10:35:24;100417.00;;;12.60;100.00
19086;BME280;9675;51.538;6.728;2023-03-22T10:37:54;100423.09;;;12.62;100.00
19086;BME280;9675;51.538;6.728;2023-03-22T10:40:25;100425.94;;;12.70;100.00
19086;BME280;9675;51.538;6.728;2023-03-22T10:42:56;100420.88;;;12.73;100.00
19086;BME280;9675;51.538;6.728;2023-03-22T10:45:26;100417.47;;;12.74;100.00
19086;BME280;9675;51.538;6.728;2023-03-22T10:48:00;100412.41;;;12.77;100.00
19086;BME280;9675;51.538;6.728;2023-03-22T10:50:33;100422.81;;;12.80;100.00
19086;BME280;9675;51.538;6.728;2023-03-22T10:53:10;100421.25;;;12.84;100.00
19086;BME280;9675;51.538;6.728;2023-03-22T10:55:40;100410.94;;;12.85;100.00
19086;BME280;9675;51.538;6.728;2023-03-22T10:58:12;100417.03;;;12.87;100.00
19086;BME280;9675;51.538;6.728;2023-03-22T11:00:44;100420.59;;;12.91;100.00
19086;BME280;9675;51.538;6.728;2023-03-22T11:03:28;100412.97;;;12.94;100.00
19086;BME280;9675;51.538;6.728;2023-03-22T11:06:01;100410.31;;;12.92;100.00
19086;BME280;9675;51.538;6.728;2023-03-22T11:08:42;100432.81;;;12.95;100.00
19086;BME280;9675;51.538;6.728;2023-03-22T11:11:19;100416.44;;;12.94;100.00
19086;BME280;9675;51.538;6.728;2023-03-22T11:13:58;100420.78;;;12.95;99.43
19086;BME280;9675;51.538;6.728;2023-03-22T11:16:26;100419.94;;;12.96;99.45
19086;BME280;9675;51.538;6.728;2023-03-22T11:19:00;100417.50;;;13.01;100.00
19086;BME280;9675;51.538;6.728;2023-03-22T11:21:31;100404.56;;;13.01;100.00
19086;BME280;9675;51.538;6.728;2023-03-22T11:24:03;100409.78;;;13.02;99.72
19086;BME280;9675;51.538;6.728;2023-03-22T11:26:34;100404.53;;;12.99;98.67
19086;BME280;9675;51.538;6.728;2023-03-22T11:29:10;100406.31;;;13.00;99.21
19086;BME280;9675;51.538;6.728;2023-03-22T11:31:52;100405.41;;;13.00;99.13
19086;BME280;9675;51.538;6.728;2023-03-22T11:34:24;100415.78;;;13.01;100.00
19086;BME280;9675;51.538;6.728;2023-03-22T11:36:52;100416.72;;;13.03;100.00
19086;BME280;9675;51.538;6.728;2023-03-22T11:39:26;100417.59;;;13.04;100.00
19086;BME280;9675;51.538;6.728;2023-03-22T11:41:56;100403.75;;;13.02;100.00
19086;BME280;9675;51.538;6.728;2023-03-22T11:44:31;100409.78;;;13.02;100.00
19086;BME280;9675;51.538;6.728;2023-03-22T11:47:01;100404.53;;;12.99;100.00
19086;BME280;9675;51.538;6.728;2023-03-22T11:49:43;100402.78;;;12.98;100.00
19086;BME280;9675;51.538;6.728;2023-03-22T11:52:16;100399.31;;;12.98;100.00
19086;BME280;9675;51.538;6.728;2023-03-22T11:54:45;100403.66;;;12.99;100.00
19086;BME280;9675;51.538;6.728;2023-03-22T11:57:16;100411.41;;;12.99;100.00
19086;BME280;9675;51.538;6.728;2023-03-22T11:59:51;100403.59;;;12.97;100.00
19086;BME280;9675;51.538;6.728;2023-03-22T12:02:24;100401.00;;;12.97;100.00
19086;BME280;9675;51.538;6.728;2023-03-22T12:04:59;100404.47;;;12.98;100.00
19086;BME280;9675;51.538;6.728;2023-03-22T12:07:33;100395.84;;;12.97;100.00
19086;BME280;9675;51.538;6.728;2023-03-22T12:10:09;100397.53;;;12.95;100.00
19086;BME280;9675;51.538;6.728;2023-03-22T12:12:44;100391.50;;;12.96;100.00
19086;BME280;9675;51.538;6.728;2023-03-22T12:15:18;100394.97;;;12.97;100.00
19086;BME280;9675;51.538;6.728;2023-03-22T12:17:53;100394.16;;;12.98;100.00
19086;BME280;9675;51.538;6.728;2023-03-22T12:20:34;100393.31;;;12.99;100.00
19086;BME280;9675;51.538;6.728;2023-03-22T12:23:13;100394.09;;;12.96;100.00
19086;BME280;9675;51.538;6.728;2023-03-22T12:25:47;100401.00;;;12.97;100.00
19086;BME280;9675;51.538;6.728;2023-03-22T12:28:19;100394.09;;;12.96;100.00
19086;BME280;9675;51.538;6.728;2023-03-22T12:30:53;100399.25;;;12.96;99.46
19086;BME280;9675;51.538;6.728;2023-03-22T12:33:26;100391.50;;;12.96;100.00
19086;BME280;9675;51.538;6.728;2023-03-22T12:35:59;100399.25;;;12.96;100.00
19086;BME280;9675;51.538;6.728;2023-03-22T12:38:37;100405.28;;;12.95;100.00
19086;BME280;9675;51.538;6.728;2023-03-22T12:41:11;100404.41;;;12.95;100.00
19086;BME280;9675;51.538;6.728;2023-03-22T12:43:47;100403.50;;;12.94;100.00
19086;BME280;9675;51.538;6.728;2023-03-22T12:46:19;100403.53;;;12.96;100.00
19086;BME280;9675;51.538;6.728;2023-03-22T12:48:52;100412.16;;;12.95;99.24
19086;BME280;9675;51.538;6.728;2023-03-22T12:51:20;100402.69;;;12.95;98.11
19086;BME280;9675;51.538;6.728;2023-03-22T12:53:52;100397.53;;;12.95;99.11
19086;BME280;9675;51.538;6.728;2023-03-22T12:56:25;100397.53;;;12.95;99.52
19086;BME280;9675;51.538;6.728;2023-03-22T12:58:58;100399.22;;;12.95;100.00
19086;BME280;9675;51.538;6.728;2023-03-22T13:01:35;100394.00;;;12.93;99.29
19086;BME280;9675;51.538;6.728;2023-03-22T13:04:30;100405.28;;;12.95;98.13
19086;BME280;9675;51.538;6.728;2023-03-22T13:07:10;100402.69;;;12.95;98.72
19086;BME280;9675;51.538;6.728;2023-03-22T13:09:42;100390.69;;;12.97;98.60
19086;BME280;9675;51.538;6.728;2023-03-22T13:12:31;100400.13;;;12.97;97.90